EDT,Max TemperatureF,Mean TemperatureF,Min TemperatureF,Max Dew PointF,MeanDew PointF,Min DewpointF,Max Humidity, Mean Humidity, Min Humidity, Max Sea Level PressureIn, Mean Sea Level PressureIn, Min Sea Level PressureIn, Max VisibilityMiles, Mean VisibilityMiles, Min VisibilityMiles, Max Wind SpeedMPH, Mean Wind SpeedMPH, Max Gust SpeedMPH,PrecipitationIn, CloudCover, Events, WindDirDegrees
2013-5-1,71,64,57,59,56,52,100,73,56,30.19,30.14,30.09,10,10,10,13,4,20,0.00,1,,166
2013-5-2,71,61,51,59,55,52,100,73,57,30.20,30.16,30.12,10,10,10,15,6,21,0.00,3,,142
2013-5-3,64,62,60,55,54,52,82,73,68,30.13,30.04,29.97,10,10,10,23,9,28,0.00,6,Rain,133
2013-5-4,62,56,51,54,51,48,100,90,63,29.96,29.91,29.88,10,8,2,23,10,33,0.12,8,Rain,146
2013-5-5,64,55,46,52,49,46,100,94,59,29.88,29.83,29.75,10,8,2,10,3,24,0.08,7,Rain-Thunderstorm,16
2013-5-6,53,50,46,52,49,46,100,98,88,29.91,29.86,29.79,10,9,3,8,3,,0.02,8,Rain,143
2013-5-7,69,60,50,55,51,50,100,81,49,30.00,29.94,29.88,10,9,3,9,3,,0.01,5,Rain,330
2013-5-8,73,62,50,63,56,50,100,84,57,30.07,30.03,29.97,10,10,3,5,1,,0.00,3,Rain-Thunderstorm,31
2013-5-9,78,64,51,63,58,52,100,77,42,30.14,30.08,30.03,10,8,2,6,0,,0.00,1,,168
2013-5-10,73,64,55,63,60,55,100,85,57,30.10,30.04,29.96,10,10,4,9,1,,0.00,3,Rain,167
2013-5-11,73,66,59,64,61,54,100,93,65,30.00,29.96,29.91,10,9,2,12,2,16,0.01,7,Rain-Thunderstorm,176
2013-5-12,64,55,46,55,42,34,100,64,32,30.16,30.07,30.00,10,10,10,14,6,20,0.00,0,,333
2013-5-13,68,54,39,45,38,34,100,62,28,30.27,30.20,30.15,10,10,10,10,2,,0.00,0,,323
2013-5-14,78,60,41,57,48,41,100,70,41,30.26,30.19,30.10,10,10,10,9,2,,0.00,0,,173
2013-5-15,84,70,55,61,56,52,100,66,33,30.19,30.11,30.02,10,10,10,6,3,,0.00,0,,192
2013-5-16,80,68,57,64,61,57,100,81,48,30.10,30.04,29.98,10,10,10,6,1,,0.00,1,,175
2013-5-17,78,69,60,64,62,59,100,82,51,30.11,30.06,30.02,10,10,7,8,1,,0.00,3,Rain,167
2013-5-18,71,66,62,70,66,63,100,96,88,30.09,30.05,30.03,10,9,2,10,5,,0.02,8,Rain-Thunderstorm,145
2013-5-19,69,64,60,70,65,61,100,100,88,30.12,30.05,29.99,10,8,1,12,3,,0.02,6,Rain-Thunderstorm,151
2013-5-20,80,66,53,70,63,54,100,87,61,30.13,30.06,30.01,10,6,0,6,1,,0.00,3,Fog,196
2013-5-21,86,74,62,72,68,63,100,82,48,30.06,29.99,29.90,10,8,3,9,1,,0.00,2,Rain-Thunderstorm,181
2013-5-22,84,73,62,70,66,61,100,82,45,29.99,29.93,29.87,10,10,10,12,5,13,0.00,2,Rain-Thunderstorm,165
2013-5-23,80,70,60,68,60,52,100,72,41,30.02,29.97,29.92,10,9,0,14,3,23,0.00,3,Fog,303
2013-5-24,69,60,51,55,51,45,100,68,40,30.27,30.17,30.03,10,10,10,17,6,25,0.00,1,,348
2013-5-25,77,60,44,55,47,39,100,65,28,30.34,30.27,30.20,10,10,10,9,2,,0.00,0,,351
2013-5-26,78,63,48,59,53,48,100,73,41,30.28,30.22,30.17,10,10,7,5,0,,0.00,0,,67
2013-5-27,82,68,53,66,58,54,100,74,39,30.24,30.17,30.10,10,10,10,8,1,,0.00,1,,165
2013-5-28,86,73,60,63,60,55,100,66,37,30.21,30.15,30.10,10,10,10,12,3,16,0.00,1,,163
2013-5-29,84,72,60,64,62,55,100,71,37,30.23,30.17,30.12,10,10,10,13,3,,0.00,0,,147
2013-5-30,82,73,64,66,64,63,94,74,51,30.24,30.17,30.11,10,10,10,12,5,17,0.00,2,,150
2013-5-31,84,75,66,66,64,63,94,70,48,30.20,30.13,30.06,10,10,10,12,5,17,0.00,3,,147